sensor_id;sensor_type;location;lat;lon;timestamp;P1;durP1;ratioP1;P2;durP2;ratioP2
8986;SDS011;4529;51.360;12.474;2023-05-24T00:02:29;11.57;;;2.70;;
8986;SDS011;4529;51.360;12.474;2023-05-24T00:07:32;5.47;;;2.20;;
8986;SDS011;4529;51.360;12.474;2023-05-24T00:12:36;7.67;;;2.23;;
8986;SDS011;4529;51.360;12.474;2023-05-24T00:17:39;7.23;;;2.47;;
8986;SDS011;4529;51.360;12.474;2023-05-24T00:22:43;7.80;;;2.30;;
8986;SDS011;4529;51.360;12.474;2023-05-24T00:27:46;8.70;;;3.00;;
8986;SDS011;4529;51.360;12.474;2023-05-24T00:32:50;10.50;;;3.07;;
8986;SDS011;4529;51.360;12.474;2023-05-24T00:37:53;9.07;;;2.67;;
8986;SDS011;4529;51.360;12.474;2023-05-24T00:42:56;7.70;;;2.60;;
8986;SDS011;4529;51.360;12.474;2023-05-24T00:48:00;6.87;;;2.60;;
8986;SDS011;4529;51.360;12.474;2023-05-24T00:53:03;9.53;;;2.40;;
8986;SDS011;4529;51.360;12.474;2023-05-24T00:58:12;6.33;;;2.30;;
8986;SDS011;4529;51.360;12.474;2023-05-24T01:03:15;8.40;;;2.47;;
8986;SDS011;4529;51.360;12.474;2023-05-24T01:08:22;6.87;;;2.63;;
8986;SDS011;4529;51.360;12.474;2023-05-24T01:13:35;8.53;;;2.70;;
8986;SDS011;4529;51.360;12.474;2023-05-24T01:19:14;9.03;;;2.83;;
8986;SDS011;4529;51.360;12.474;2023-05-24T01:29:43;6.53;;;2.67;;
8986;SDS011;4529;51.360;12.474;2023-05-24T01:34:46;6.97;;;2.23;;
8986;SDS011;4529;51.360;12.474;2023-05-24T01:39:50;9.57;;;2.77;;
8986;SDS011;4529;51.360;12.474;2023-05-24T01:45:00;7.37;;;2.60;;
8986;SDS011;4529;51.360;12.474;2023-05-24T01:50:08;9.47;;;2.73;;
8986;SDS011;4529;51.360;12.474;2023-05-24T01:55:15;9.93;;;2.27;;
8986;SDS011;4529;51.360;12.474;2023-05-24T02:00:19;9.37;;;2.73;;
8986;SDS011;4529;51.360;12.474;2023-05-24T02:05:23;10.97;;;2.63;;
8986;SDS011;4529;51.360;12.474;2023-05-24T02:10:27;8.57;;;2.60;;
8986;SDS011;4529;51.360;12.474;2023-05-24T02:15:31;7.63;;;2.33;;
8986;SDS011;4529;51.360;12.474;2023-05-24T02:20:35;10.07;;;2.50;;
8986;SDS011;4529;51.360;12.474;2023-05-24T02:25:39;9.73;;;2.50;;
8986;SDS011;4529;51.360;12.474;2023-05-24T02:30:42;8.67;;;2.40;;
8986;SDS011;4529;51.360;12.474;2023-05-24T02:35:46;9.47;;;2.10;;
8986;SDS011;4529;51.360;12.474;2023-05-24T02:40:49;11.43;;;2.63;;
8986;SDS011;4529;51.360;12.474;2023-05-24T02:45:53;7.20;;;2.43;;
8986;SDS011;4529;51.360;12.474;2023-05-24T02:50:56;8.37;;;2.57;;
8986;SDS011;4529;51.360;12.474;2023-05-24T02:55:59;7.17;;;2.30;;
8986;SDS011;4529;51.360;12.474;2023-05-24T03:01:03;9.00;;;2.30;;
8986;SDS011;4529;51.360;12.474;2023-05-24T03:06:07;7.73;;;2.63;;
8986;SDS011;4529;51.360;12.474;2023-05-24T03:11:11;5.37;;;2.40;;
8986;SDS011;4529;51.360;12.474;2023-05-24T03:16:14;10.97;;;2.43;;
8986;SDS011;4529;51.360;12.474;2023-05-24T03:21:17;5.37;;;2.30;;
8986;SDS011;4529;51.360;12.474;2023-05-24T03:26:21;11.07;;;3.10;;
8986;SDS011;4529;51.360;12.474;2023-05-24T03:31:24;8.00;;;2.70;;
8986;SDS011;4529;51.360;12.474;2023-05-24T03:36:28;5.10;;;2.30;;
8986;SDS011;4529;51.360;12.474;2023-05-24T03:41:31;12.17;;;2.73;;
8986;SDS011;4529;51.360;12.474;2023-05-24T03:46:35;9.43;;;2.67;;
8986;SDS011;4529;51.360;12.474;2023-05-24T03:51:39;9.37;;;2.77;;
8986;SDS011;4529;51.360;12.474;2023-05-24T03:56:42;9.97;;;2.70;;
8986;SDS011;4529;51.360;12.474;2023-05-24T04:01:46;10.10;;;2.70;;
8986;SDS011;4529;51.360;12.474;2023-05-24T04:06:49;11.33;;;2.57;;
8986;SDS011;4529;51.360;12.474;2023-05-24T04:11:53;9.83;;;2.83;;
8986;SDS011;4529;51.360;12.474;2023-05-24T04:16:56;11.70;;;2.80;;
8986;SDS011;4529;51.360;12.474;2023-05-24T04:22:00;11.10;;;2.70;;
8986;SDS011;4529;51.360;12.474;2023-05-24T04:27:08;9.67;;;2.47;;
8986;SDS011;4529;51.360;12.474;2023-05-24T04:32:11;11.60;;;3.17;;
8986;SDS011;4529;51.360;12.474;2023-05-24T04:37:15;11.03;;;3.10;;
8986;SDS011;4529;51.360;12.474;2023-05-24T04:42:19;8.87;;;2.90;;
8986;SDS011;4529;51.360;12.474;2023-05-24T04:47:23;13.10;;;3.17;;
8986;SDS011;4529;51.360;12.474;2023-05-24T04:52:25;15.37;;;3.10;;
8986;SDS011;4529;51.360;12.474;2023-05-24T04:57:29;11.30;;;2.83;;
8986;SDS011;4529;51.360;12.474;2023-05-24T05:02:32;9.70;;;2.90;;
8986;SDS011;4529;51.360;12.474;2023-05-24T05:07:36;10.77;;;3.20;;
8986;SDS011;4529;51.360;12.474;2023-05-24T05:12:39;12.93;;;3.47;;
8986;SDS011;4529;51.360;12.474;2023-05-24T05:17:43;11.53;;;3.30;;
8986;SDS011;4529;51.360;12.474;2023-05-24T05:22:47;10.13;;;3.23;;
8986;SDS011;4529;51.360;12.474;2023-05-24T05:27:50;12.70;;;2.80;;
8986;SDS011;4529;51.360;12.474;2023-05-24T05:32:53;11.57;;;2.60;;
8986;SDS011;4529;51.360;12.474;2023-05-24T05:37:57;9.07;;;2.50;;
8986;SDS011;4529;51.360;12.474;2023-05-24T05:43:00;10.50;;;2.47;;
8986;SDS011;4529;51.360;12.474;2023-05-24T05:48:03;9.53;;;2.67;;
8986;SDS011;4529;51.360;12.474;2023-05-24T05:53:07;8.60;;;2.40;;
8986;SDS011;4529;51.360;12.474;2023-05-24T05:58:10;8.17;;;3.10;;
8986;SDS011;4529;51.360;12.474;2023-05-24T06:03:14;15.10;;;3.10;;
8986;SDS011;4529;51.360;12.474;2023-05-24T06:08:17;11.47;;;3.00;;
8986;SDS011;4529;51.360;12.474;2023-05-24T06:13:21;16.73;;;3.90;;
8986;SDS011;4529;51.360;12.474;2023-05-24T06:18:25;9.63;;;3.33;;
8986;SDS011;4529;51.360;12.474;2023-05-24T06:23:29;12.77;;;3.33;;
8986;SDS011;4529;51.360;12.474;2023-05-24T06:28:33;7.33;;;2.97;;
8986;SDS011;4529;51.360;12.474;2023-05-24T06:33:37;8.47;;;2.90;;
8986;SDS011;4529;51.360;12.474;2023-05-24T06:38:41;9.90;;;2.90;;
8986;SDS011;4529;51.360;12.474;2023-05-24T06:43:46;7.97;;;3.07;;
8986;SDS011;4529;51.360;12.474;2023-05-24T06:48:50;9.33;;;3.27;;
8986;SDS011;4529;51.360;12.474;2023-05-24T06:53:54;11.13;;;3.10;;
8986;SDS011;4529;51.360;12.474;2023-05-24T06:59:03;10.00;;;3.13;;
8986;SDS011;4529;51.360;12.474;2023-05-24T07:04:06;14.50;;;3.37;;
8986;SDS011;4529;51.360;12.474;2023-05-24T07:09:10;12.20;;;3.50;;
8986;SDS011;4529;51.360;12.474;2023-05-24T07:14:13;9.60;;;2.90;;
8986;SDS011;4529;51.360;12.474;2023-05-24T07:19:17;15.57;;;3.30;;
8986;SDS011;4529;51.360;12.474;2023-05-24T07:24:20;7.77;;;3.00;;
8986;SDS011;4529;51.360;12.474;2023-05-24T07:29:24;11.60;;;2.93;;
8986;SDS011;4529;51.360;12.474;2023-05-24T07:34:27;11.60;;;3.20;;
8986;SDS011;4529;51.360;12.474;2023-05-24T07:39:30;8.97;;;2.90;;
8986;SDS011;4529;51.360;12.474;2023-05-24T07:44:34;8.77;;;3.03;;
8986;SDS011;4529;51.360;12.474;2023-05-24T07:49:37;11.13;;;3.00;;
8986;SDS011;4529;51.360;12.474;2023-05-24T07:54:41;10.27;;;3.13;;
8986;SDS011;4529;51.360;12.474;2023-05-24T07:59:44;11.33;;;3.23;;
8986;SDS011;4529;51.360;12.474;2023-05-24T08:04:48;14.37;;;3.57;;
8986;SDS011;4529;51.360;12.474;2023-05-24T08:09:51;16.33;;;3.80;;
8986;SDS011;4529;51.360;12.474;2023-05-24T08:14:55;12.60;;;3.80;;
8986;SDS011;4529;51.360;12.474;2023-05-24T08:19:58;16.27;;;3.60;;
8986;SDS011;4529;51.360;12.474;2023-05-24T08:25:03;10.83;;;3.90;;
8986;SDS011;4529;51.360;12.474;2023-05-24T08:30:06;14.23;;;4.07;;
8986;SDS011;4529;51.360;12.474;2023-05-24T08:35:10;8.10;;;3.07;;
8986;SDS011;4529;51.360;12.474;2023-05-24T08:40:13;10.53;;;2.90;;
8986;SDS011;4529;51.360;12.474;2023-05-24T08:45:16;13.20;;;3.67;;
8986;SDS011;4529;51.360;12.474;2023-05-24T08:50:20;10.03;;;3.30;;
8986;SDS011;4529;51.360;12.474;2023-05-24T08:55:23;10.70;;;3.87;;
8986;SDS011;4529;51.360;12.474;2023-05-24T09:00:27;9.57;;;3.50;;
8986;SDS011;4529;51.360;12.474;2023-05-24T09:05:30;12.10;;;3.50;;
8986;SDS011;4529;51.360;12.474;2023-05-24T09:10:34;11.63;;;3.60;;
8986;SDS011;4529;51.360;12.474;2023-05-24T09:15:37;10.70;;;3.60;;
8986;SDS011;4529;51.360;12.474;2023-05-24T09:20:41;8.33;;;2.97;;
8986;SDS011;4529;51.360;12.474;2023-05-24T09:25:44;7.60;;;3.20;;
8986;SDS011;4529;51.360;12.474;2023-05-24T09:30:57;6.83;;;2.67;;
8986;SDS011;4529;51.360;12.474;2023-05-24T09:36:00;9.07;;;2.80;;
8986;SDS011;4529;51.360;12.474;2023-05-24T09:41:06;8.53;;;2.73;;
8986;SDS011;4529;51.360;12.474;2023-05-24T09:46:14;10.27;;;3.10;;
8986;SDS011;4529;51.360;12.474;2023-05-24T09:51:14;9.87;;;3.03;;
8986;SDS011;4529;51.360;12.474;2023-05-24T09:56:18;11.20;;;3.37;;
8986;SDS011;4529;51.360;12.474;2023-05-24T10:01:23;8.67;;;3.20;;
8986;SDS011;4529;51.360;12.474;2023-05-24T10:06:29;9.07;;;3.10;;
8986;SDS011;4529;51.360;12.474;2023-05-24T10:11:33;12.30;;;3.40;;
8986;SDS011;4529;51.360;12.474;2023-05-24T10:16:36;11.27;;;3.07;;
8986;SDS011;4529;51.360;12.474;2023-05-24T10:21:40;10.33;;;3.30;;
8986;SDS011;4529;51.360;12.474;2023-05-24T10:26:43;9.90;;;3.33;;
8986;SDS011;4529;51.360;12.474;2023-05-24T10:31:47;7.30;;;3.20;;
8986;SDS011;4529;51.360;12.474;2023-05-24T10:36:50;10.47;;;3.50;;
8986;SDS011;4529;51.360;12.474;2023-05-24T10:41:56;11.23;;;3.40;;
8986;SDS011;4529;51.360;12.474;2023-05-24T10:47:07;11.70;;;3.50;;
8986;SDS011;4529;51.360;12.474;2023-05-24T10:52:10;8.20;;;3.43;;
8986;SDS011;4529;51.360;12.474;2023-05-24T10:57:14;7.47;;;3.33;;
8986;SDS011;4529;51.360;12.474;2023-05-24T11:02:18;7.57;;;3.40;;
8986;SDS011;4529;51.360;12.474;2023-05-24T11:07:22;11.73;;;4.00;;
8986;SDS011;4529;51.360;12.474;2023-05-24T11:12:29;8.63;;;3.30;;
8986;SDS011;4529;51.360;12.474;2023-05-24T11:17:30;12.23;;;3.50;;
8986;SDS011;4529;51.360;12.474;2023-05-24T11:22:34;8.10;;;3.30;;
8986;SDS011;4529;51.360;12.474;2023-05-24T11:27:44;8.90;;;3.43;;
8986;SDS011;4529;51.360;12.474;2023-05-24T11:32:48;9.83;;;3.57;;
8986;SDS011;4529;51.360;12.474;2023-05-24T11:37:53;10.93;;;3.03;;
8986;SDS011;4529;51.360;12.474;2023-05-24T11:42:57;11.30;;;3.67;;
8986;SDS011;4529;51.360;12.474;2023-05-24T11:48:04;7.97;;;2.97;;
8986;SDS011;4529;51.360;12.474;2023-05-24T11:53:17;8.70;;;3.30;;
8986;SDS011;4529;51.360;12.474;2023-05-24T11:58:24;12.53;;;3.73;;
8986;SDS011;4529;51.360;12.474;2023-05-24T12:03:34;6.80;;;3.80;;
8986;SDS011;4529;51.360;12.474;2023-05-24T12:08:38;5.73;;;3.23;;
8986;SDS011;4529;51.360;12.474;2023-05-24T12:13:42;6.93;;;3.20;;
8986;SDS011;4529;51.360;12.474;2023-05-24T12:18:45;7.70;;;3.10;;
8986;SDS011;4529;51.360;12.474;2023-05-24T12:23:48;8.17;;;3.30;;
8986;SDS011;4529;51.360;12.474;2023-05-24T12:28:52;10.63;;;3.23;;
8986;SDS011;4529;51.360;12.474;2023-05-24T12:33:55;5.87;;;3.13;;
8986;SDS011;4529;51.360;12.474;2023-05-24T12:38:59;4.60;;;2.93;;
8986;SDS011;4529;51.360;12.474;2023-05-24T12:44:02;6.17;;;3.00;;
8986;SDS011;4529;51.360;12.474;2023-05-24T12:49:05;6.13;;;2.73;;
8986;SDS011;4529;51.360;12.474;2023-05-24T12:54:09;5.77;;;2.90;;
8986;SDS011;4529;51.360;12.474;2023-05-24T12:59:12;6.03;;;2.70;;
8986;SDS011;4529;51.360;12.474;2023-05-24T13:04:16;8.13;;;3.40;;
8986;SDS011;4529;51.360;12.474;2023-05-24T13:09:19;7.27;;;2.67;;
8986;SDS011;4529;51.360;12.474;2023-05-24T13:14:23;5.50;;;3.10;;
8986;SDS011;4529;51.360;12.474;2023-05-24T13:19:26;4.07;;;2.43;;
8986;SDS011;4529;51.360;12.474;2023-05-24T13:24:35;6.60;;;2.50;;
8986;SDS011;4529;51.360;12.474;2023-05-24T13:29:38;5.17;;;2.60;;
8986;SDS011;4529;51.360;12.474;2023-05-24T13:34:42;3.20;;;2.47;;
8986;SDS011;4529;51.360;12.474;2023-05-24T13:39:45;6.73;;;2.53;;
8986;SDS011;4529;51.360;12.474;2023-05-24T13:44:49;7.80;;;2.77;;
8986;SDS011;4529;51.360;12.474;2023-05-24T13:49:52;7.87;;;2.80;;
8986;SDS011;4529;51.360;12.474;2023-05-24T13:54:56;7.53;;;2.50;;
8986;SDS011;4529;51.360;12.474;2023-05-24T13:59:59;5.10;;;2.97;;
8986;SDS011;4529;51.360;12.474;2023-05-24T14:05:04;7.33;;;2.80;;
8986;SDS011;4529;51.360;12.474;2023-05-24T14:10:07;9.00;;;3.10;;
8986;SDS011;4529;51.360;12.474;2023-05-24T14:15:11;5.17;;;2.80;;
8986;SDS011;4529;51.360;12.474;2023-05-24T14:20:15;5.67;;;2.77;;
8986;SDS011;4529;51.360;12.474;2023-05-24T14:25:19;8.47;;;3.37;;
8986;SDS011;4529;51.360;12.474;2023-05-24T14:30:24;6.10;;;2.77;;
8986;SDS011;4529;51.360;12.474;2023-05-24T14:35:30;6.03;;;2.60;;
8986;SDS011;4529;51.360;12.474;2023-05-24T14:40:33;4.10;;;2.43;;
8986;SDS011;4529;51.360;12.474;2023-05-24T14:45:37;6.40;;;2.50;;
8986;SDS011;4529;51.360;12.474;2023-05-24T14:50:40;4.20;;;1.73;;
8986;SDS011;4529;51.360;12.474;2023-05-24T14:55:43;2.73;;;2.23;;
8986;SDS011;4529;51.360;12.474;2023-05-24T15:00:47;7.37;;;2.30;;
8986;SDS011;4529;51.360;12.474;2023-05-24T15:05:50;4.73;;;2.60;;
8986;SDS011;4529;51.360;12.474;2023-05-24T15:10:54;5.07;;;2.60;;
8986;SDS011;4529;51.360;12.474;2023-05-24T15:15:57;4.07;;;2.30;;
8986;SDS011;4529;51.360;12.474;2023-05-24T15:21:01;3.10;;;2.30;;
8986;SDS011;4529;51.360;12.474;2023-05-24T15:26:04;6.40;;;2.50;;
8986;SDS011;4529;51.360;12.474;2023-05-24T15:31:08;4.63;;;2.80;;
8986;SDS011;4529;51.360;12.474;2023-05-24T15:36:11;4.20;;;2.73;;
8986;SDS011;4529;51.360;12.474;2023-05-24T15:41:15;3.57;;;2.53;;
8986;SDS011;4529;51.360;12.474;2023-05-24T15:46:21;7.80;;;3.00;;
8986;SDS011;4529;51.360;12.474;2023-05-24T15:51:24;5.40;;;2.77;;
8986;SDS011;4529;51.360;12.474;2023-05-24T15:56:28;6.33;;;2.83;;
8986;SDS011;4529;51.360;12.474;2023-05-24T16:01:32;7.10;;;2.83;;
8986;SDS011;4529;51.360;12.474;2023-05-24T16:06:37;6.10;;;2.83;;
8986;SDS011;4529;51.360;12.474;2023-05-24T16:11:41;5.47;;;2.70;;
8986;SDS011;4529;51.360;12.474;2023-05-24T16:16:45;4.30;;;2.47;;
8986;SDS011;4529;51.360;12.474;2023-05-24T16:21:49;4.87;;;2.67;;
8986;SDS011;4529;51.360;12.474;2023-05-24T16:26:54;5.33;;;2.47;;
8986;SDS011;4529;51.360;12.474;2023-05-24T16:31:57;4.30;;;2.77;;
8986;SDS011;4529;51.360;12.474;2023-05-24T16:37:02;6.90;;;2.57;;
8986;SDS011;4529;51.360;12.474;2023-05-24T16:42:06;4.70;;;2.37;;
8986;SDS011;4529;51.360;12.474;2023-05-24T16:47:10;4.47;;;2.80;;
8986;SDS011;4529;51.360;12.474;2023-05-24T16:52:14;3.90;;;2.10;;
8986;SDS011;4529;51.360;12.474;2023-05-24T16:57:18;6.60;;;2.30;;
8986;SDS011;4529;51.360;12.474;2023-05-24T17:02:22;6.53;;;2.60;;
8986;SDS011;4529;51.360;12.474;2023-05-24T17:07:26;3.57;;;2.33;;
8986;SDS011;4529;51.360;12.474;2023-05-24T17:12:30;4.67;;;2.73;;
8986;SDS011;4529;51.360;12.474;2023-05-24T17:17:34;3.33;;;2.57;;
8986;SDS011;4529;51.360;12.474;2023-05-24T17:22:38;4.27;;;2.90;;
8986;SDS011;4529;51.360;12.474;2023-05-24T17:27:41;4.23;;;2.27;;
8986;SDS011;4529;51.360;12.474;2023-05-24T17:32:45;3.13;;;2.50;;
8986;SDS011;4529;51.360;12.474;2023-05-24T17:37:48;5.70;;;2.70;;
8986;SDS011;4529;51.360;12.474;2023-05-24T17:42:52;5.27;;;2.37;;
8986;SDS011;4529;51.360;12.474;2023-05-24T17:47:55;5.17;;;2.50;;
8986;SDS011;4529;51.360;12.474;2023-05-24T17:52:59;4.27;;;2.30;;
8986;SDS011;4529;51.360;12.474;2023-05-24T17:58:02;3.43;;;2.43;;
8986;SDS011;4529;51.360;12.474;2023-05-24T18:03:06;3.27;;;2.27;;
8986;SDS011;4529;51.360;12.474;2023-05-24T18:08:09;4.47;;;2.50;;
8986;SDS011;4529;51.360;12.474;2023-05-24T18:13:13;4.83;;;2.47;;
8986;SDS011;4529;51.360;12.474;2023-05-24T18:18:16;3.07;;;2.50;;
8986;SDS011;4529;51.360;12.474;2023-05-24T18:23:19;4.93;;;2.40;;
8986;SDS011;4529;51.360;12.474;2023-05-24T18:28:23;4.20;;;2.67;;
8986;SDS011;4529;51.360;12.474;2023-05-24T18:33:26;3.10;;;2.33;;
8986;SDS011;4529;51.360;12.474;2023-05-24T18:38:33;3.57;;;2.37;;
8986;SDS011;4529;51.360;12.474;2023-05-24T18:43:36;2.67;;;2.37;;
8986;SDS011;4529;51.360;12.474;2023-05-24T18:48:42;2.67;;;2.20;;
8986;SDS011;4529;51.360;12.474;2023-05-24T18:53:46;3.47;;;2.30;;
8986;SDS011;4529;51.360;12.474;2023-05-24T18:58:50;3.47;;;2.43;;
8986;SDS011;4529;51.360;12.474;2023-05-24T19:03:54;4.03;;;2.43;;
8986;SDS011;4529;51.360;12.474;2023-05-24T19:08:58;3.07;;;2.30;;
8986;SDS011;4529;51.360;12.474;2023-05-24T19:14:02;4.27;;;2.33;;
8986;SDS011;4529;51.360;12.474;2023-05-24T19:19:05;4.80;;;2.60;;
8986;SDS011;4529;51.360;12.474;2023-05-24T19:24:09;4.97;;;2.57;;
8986;SDS011;4529;51.360;12.474;2023-05-24T19:29:13;3.60;;;2.20;;
8986;SDS011;4529;51.360;12.474;2023-05-24T19:34:17;3.63;;;2.33;;
8986;SDS011;4529;51.360;12.474;2023-05-24T19:39:21;4.47;;;2.77;;
8986;SDS011;4529;51.360;12.474;2023-05-24T19:44:25;2.87;;;2.60;;
8986;SDS011;4529;51.360;12.474;2023-05-24T19:49:28;4.43;;;2.80;;
8986;SDS011;4529;51.360;12.474;2023-05-24T19:54:32;3.87;;;2.43;;
8986;SDS011;4529;51.360;12.474;2023-05-24T19:59:35;5.67;;;2.73;;
8986;SDS011;4529;51.360;12.474;2023-05-24T20:04:39;5.23;;;2.60;;
8986;SDS011;4529;51.360;12.474;2023-05-24T20:09:43;4.10;;;2.43;;
8986;SDS011;4529;51.360;12.474;2023-05-24T20:14:47;4.57;;;2.57;;
8986;SDS011;4529;51.360;12.474;2023-05-24T20:19:51;4.67;;;2.87;;
8986;SDS011;4529;51.360;12.474;2023-05-24T20:24:55;5.40;;;2.90;;
8986;SDS011;4529;51.360;12.474;2023-05-24T20:29:59;3.30;;;2.63;;
8986;SDS011;4529;51.360;12.474;2023-05-24T20:35:04;6.17;;;2.60;;
8986;SDS011;4529;51.360;12.474;2023-05-24T20:40:07;6.07;;;3.17;;
8986;SDS011;4529;51.360;12.474;2023-05-24T20:45:11;4.60;;;3.00;;
8986;SDS011;4529;51.360;12.474;2023-05-24T20:50:14;5.93;;;3.13;;
8986;SDS011;4529;51.360;12.474;2023-05-24T20:55:17;5.17;;;2.80;;
8986;SDS011;4529;51.360;12.474;2023-05-24T21:00:21;4.27;;;2.80;;
8986;SDS011;4529;51.360;12.474;2023-05-24T21:05:24;4.37;;;3.00;;
8986;SDS011;4529;51.360;12.474;2023-05-24T21:10:28;2.90;;;2.70;;
8986;SDS011;4529;51.360;12.474;2023-05-24T21:15:31;4.83;;;2.73;;
8986;SDS011;4529;51.360;12.474;2023-05-24T21:20:35;3.77;;;2.63;;
8986;SDS011;4529;51.360;12.474;2023-05-24T21:25:38;4.07;;;2.87;;
8986;SDS011;4529;51.360;12.474;2023-05-24T21:30:42;4.73;;;2.73;;
8986;SDS011;4529;51.360;12.474;2023-05-24T21:35:45;3.03;;;2.73;;
8986;SDS011;4529;51.360;12.474;2023-05-24T21:40:49;5.03;;;2.97;;
8986;SDS011;4529;51.360;12.474;2023-05-24T21:45:52;3.97;;;2.63;;
8986;SDS011;4529;51.360;12.474;2023-05-24T21:50:56;4.27;;;3.03;;
8986;SDS011;4529;51.360;12.474;2023-05-24T21:55:59;4.13;;;2.90;;
8986;SDS011;4529;51.360;12.474;2023-05-24T22:01:03;4.73;;;3.00;;
8986;SDS011;4529;51.360;12.474;2023-05-24T22:06:07;5.53;;;3.23;;
8986;SDS011;4529;51.360;12.474;2023-05-24T22:11:10;4.70;;;3.00;;
8986;SDS011;4529;51.360;12.474;2023-05-24T22:16:14;3.30;;;3.00;;
8986;SDS011;4529;51.360;12.474;2023-05-24T22:21:18;5.90;;;3.40;;
8986;SDS011;4529;51.360;12.474;2023-05-24T22:26:21;4.80;;;3.27;;
8986;SDS011;4529;51.360;12.474;2023-05-24T22:31:25;8.50;;;3.43;;
8986;SDS011;4529;51.360;12.474;2023-05-24T22:36:29;7.67;;;3.20;;
8986;SDS011;4529;51.360;12.474;2023-05-24T22:41:32;6.30;;;3.20;;
8986;SDS011;4529;51.360;12.474;2023-05-24T22:46:35;4.73;;;3.13;;
8986;SDS011;4529;51.360;12.474;2023-05-24T22:51:39;4.90;;;3.13;;
8986;SDS011;4529;51.360;12.474;2023-05-24T22:56:42;5.80;;;3.00;;
8986;SDS011;4529;51.360;12.474;2023-05-24T23:01:46;4.70;;;3.03;;
8986;SDS011;4529;51.360;12.474;2023-05-24T23:06:49;5.53;;;3.13;;
8986;SDS011;4529;51.360;12.474;2023-05-24T23:11:53;7.10;;;3.30;;
8986;SDS011;4529;51.360;12.474;2023-05-24T23:16:56;5.37;;;3.20;;
8986;SDS011;4529;51.360;12.474;2023-05-24T23:22:00;3.93;;;3.03;;
8986;SDS011;4529;51.360;12.474;2023-05-24T23:27:06;5.63;;;3.10;;
8986;SDS011;4529;51.360;12.474;2023-05-24T23:32:10;3.30;;;3.00;;
8986;SDS011;4529;51.360;12.474;2023-05-24T23:37:13;3.80;;;3.00;;
8986;SDS011;4529;51.360;12.474;2023-05-24T23:42:16;3.40;;;2.93;;
8986;SDS011;4529;51.360;12.474;2023-05-24T23:47:20;5.60;;;3.40;;
8986;SDS011;4529;51.360;12.474;2023-05-24T23:52:23;5.40;;;3.17;;
8986;SDS011;4529;51.360;12.474;2023-05-24T23:57:27;7.33;;;3.47;;
